This is the latest recevied weather packets stored in our database for station/object KJ6LNH-1. If no packets are shown the sender has not sent any weather packets the latest 1 day(s).
| Time | Temp. | Humidity | Pressure | Rain* | Wind** | Luminosity | Snow |
|---|---|---|---|---|---|---|---|
| 1778005507 | 14.44° C | 86% | 1014.6 hPa | 0 mm | 1.79 m/s, 233° | - | - |
| 1778005207 | 13.89° C | 86% | 1014.5 hPa | 0 mm | 0.89 m/s, 261° | - | - |
| 1778004907 | 13.89° C | 87% | 1014.5 hPa | 0 mm | 1.79 m/s, 241° | - | - |
| 1778004608 | 13.89° C | 88% | 1014.6 hPa | 0 mm | 1.79 m/s, 229° | - | - |
| 1778004007 | 13.33° C | 91% | 1014.6 hPa | 0.51 mm | 2.24 m/s, 197° | - | - |
| 1778003707 | 13.33° C | 91% | 1014.5 hPa | 0.51 mm | 0.89 m/s, 281° | - | - |
| 1778003407 | 13.33° C | 91% | 1014.4 hPa | 0.51 mm | 1.34 m/s, 258° | - | - |
| 1778002808 | 13.33° C | 91% | 1014.3 hPa | 0.51 mm | 2.24 m/s, 241° | - | - |
| 1778001607 | 12.22° C | 96% | 1014.1 hPa | 0.51 mm | 0.89 m/s, 251° | - | - |
| 1778001308 | 12.22° C | 97% | 1014.2 hPa | 0.51 mm | 1.34 m/s, 218° | - | - |
| 1778001007 | 12.22° C | 98% | 1014.2 hPa | 0.51 mm | 1.34 m/s, 239° | - | - |
| 1777997408 | 11.67° C | 99% | 1014.2 hPa | 0.76 mm | 0.89 m/s, 266° | - | - |
| 1777997109 | 11.67° C | 99% | 1014.1 hPa | 0.76 mm | 1.34 m/s, 234° | - | - |
| 1777996207 | 11.11° C | 98% | 1014 hPa | 0.51 mm | 0.89 m/s, 242° | - | - |
| 1777994407 | 11.11° C | 96% | 1013.7 hPa | 0 mm | 1.34 m/s, 203° | - | - |
| 1777994107 | 11.11° C | 95% | 1013.6 hPa | 0 mm | 1.34 m/s, 217° | - | - |
| 1777991709 | 11.11° C | 95% | 1013.2 hPa | 0 mm | 1.34 m/s, 236° | - | - |
| 1777989610 | 10.56° C | 96% | 1012.9 hPa | 0 mm | 1.79 m/s, 209° | - | - |
| 1777988709 | 10.56° C | 96% | 1012.9 hPa | 0 mm | 1.34 m/s, 228° | - | - |
| 1777988108 | 10.56° C | 96% | 1012.9 hPa | 0 mm | 1.34 m/s, 223° | - | - |
| 1777987809 | 10.56° C | 96% | 1012.9 hPa | 0 mm | 1.34 m/s, 218° | - | - |
| 1777987209 | 10.56° C | 96% | 1012.8 hPa | 0 mm | 1.34 m/s, 197° | - | - |
| 1777986909 | 10.56° C | 96% | 1012.8 hPa | 0 mm | 1.34 m/s, 243° | - | - |
| 1777986804 | 10.56° C | 96% | 1012.8 hPa | 0 mm | 1.34 m/s, 218° | - | - |
| 1777986609 | 10.56° C | 96% | 1012.8 hPa | 0 mm | 1.34 m/s, 218° | - | - |
* Rain latest hour (hover to see other rain measurements)
** Current wind speed in m/s (hover to see current wind gust speed)